Time;durP1;ratioP1;P1;durP2;ratioP2;P2;SDS_P1;SDS_P2;PMS_P1;PMS_P2;Temp;Humidity;BMP_temperature;BMP_pressure;BME280_temperature;BME280_humidity;BME280_pressure;Samples;Min_cycle;Max_cycle;Signal;HPM_P1;HPM_P2
2023/09/07 04:22:33;;;;;;;5.47;3.63;;;;;;;14.81;100.00;100459.06;5088808;28;20744;-67
2023/09/07 04:24:59;;;;;;;4.45;3.50;;;;;;;14.79;100.00;100461.09;5078235;28;20036;-67
2023/09/07 04:27:25;;;;;;;4.72;3.72;;;;;;;14.76;100.00;100458.81;5079358;28;20063;-66
2023/09/07 04:29:51;;;;;;;4.25;3.70;;;;;;;14.79;100.00;100453.03;5076457;28;20495;-67
2023/09/07 04:32:16;;;;;;;4.63;3.58;;;;;;;14.80;100.00;100454.72;5080858;28;20103;-68
2023/09/07 04:34:42;;;;;;;5.93;3.63;;;;;;;14.81;100.00;100455.53;5053349;28;20500;-67
2023/09/07 04:37:08;;;;;;;5.20;4.30;;;;;;;14.82;100.00;100457.19;5066478;28;20116;-67
2023/09/07 04:39:34;;;;;;;3.90;2.85;;;;;;;14.83;100.00;100456.16;5078007;28;20119;-68
2023/09/07 04:41:59;;;;;;;4.72;4.00;;;;;;;14.84;100.00;100449.78;5077097;28;20032;-67
2023/09/07 04:44:27;;;;;;;4.95;3.63;;;;;;;14.82;100.00;100460.72;5079354;28;20043;-67
2023/09/07 04:46:55;;;;;;;7.38;3.58;;;;;;;14.86;100.00;100459.28;5069724;28;20020;-67
2023/09/07 04:49:21;;;;;;;4.32;3.45;;;;;;;14.90;100.00;100457.88;5056656;28;20035;-69
2023/09/07 04:51:46;;;;;;;5.32;3.55;;;;;;;14.95;100.00;100451.09;5069694;28;20123;-68
2023/09/07 04:54:13;;;;;;;4.95;3.42;;;;;;;15.01;100.00;100455.69;5058503;28;20110;-69
2023/09/07 04:56:38;;;;;;;5.88;3.65;;;;;;;15.08;100.00;100459.22;5076220;28;20129;-69
2023/09/07 04:59:03;;;;;;;4.72;3.00;;;;;;;15.08;100.00;100452.00;5078108;28;20108;-68
2023/09/07 05:01:29;;;;;;;5.05;3.55;;;;;;;15.12;100.00;100461.28;5076462;28;20040;-69
2023/09/07 05:03:55;;;;;;;4.03;3.35;;;;;;;15.14;100.00;100455.75;5076325;28;20119;-66
2023/09/07 05:06:22;;;;;;;6.43;3.33;;;;;;;15.16;100.00;100462.56;5077842;28;20257;-68
2023/09/07 05:08:48;;;;;;;4.00;3.35;;;;;;;15.13;100.00;100456.78;5076252;28;20033;-69
2023/09/07 05:11:13;;;;;;;3.60;3.25;;;;;;;15.14;100.00;100450.38;5076760;28;20031;-68
2023/09/07 05:13:39;;;;;;;3.95;3.25;;;;;;;15.14;100.00;100459.25;5077358;28;20033;-68
2023/09/07 05:16:04;;;;;;;4.00;2.92;;;;;;;15.17;100.00;100468.75;5076956;28;20082;-68
2023/09/07 05:18:31;;;;;;;4.78;3.50;;;;;;;15.20;100.00;100473.75;5076817;28;20036;-68
2023/09/07 05:20:57;;;;;;;5.20;3.72;;;;;;;15.20;100.00;100461.16;5085599;28;20047;-68
2023/09/07 05:23:23;;;;;;;5.22;3.83;;;;;;;15.23;100.00;100467.16;5086772;28;20387;-68
2023/09/07 05:25:52;;;;;;;7.05;3.80;;;;;;;15.26;100.00;100464.91;5086934;28;20062;-68
2023/09/07 05:28:18;;;;;;;5.45;3.97;;;;;;;15.29;100.00;100464.50;5088212;28;20036;-67
2023/09/07 05:30:43;;;;;;;7.00;3.58;;;;;;;15.35;100.00;100466.38;5087017;28;20127;-68
2023/09/07 05:33:10;;;;;;;3.78;3.38;;;;;;;15.40;100.00;100465.81;5077247;28;20044;-66
2023/09/07 05:35:37;;;;;;;4.93;3.63;;;;;;;15.47;100.00;100466.66;5073281;28;20032;-69
2023/09/07 05:38:03;;;;;;;5.05;3.83;;;;;;;15.56;100.00;100472.66;5074606;28;20343;-68
2023/09/07 05:40:29;;;;;;;5.05;3.80;;;;;;;15.60;100.00;100480.13;5073173;28;20040;-68
2023/09/07 05:42:55;;;;;;;4.30;3.50;;;;;;;15.68;100.00;100474.63;5074237;28;20448;-68
2023/09/07 05:45:20;;;;;;;4.15;3.53;;;;;;;15.79;100.00;100489.34;5074596;28;20041;-67
2023/09/07 05:47:46;;;;;;;5.45;3.75;;;;;;;15.85;100.00;100495.75;5073182;28;20403;-68
2023/09/07 05:50:12;;;;;;;4.90;3.97;;;;;;;15.91;100.00;100493.09;5073185;28;20032;-67
2023/09/07 05:52:37;;;;;;;5.20;3.78;;;;;;;15.96;100.00;100493.28;5072769;28;20032;-68
2023/09/07 05:55:04;;;;;;;4.45;3.30;;;;;;;16.02;100.00;100491.66;5073033;28;20043;-68
2023/09/07 05:57:29;;;;;;;5.47;3.90;;;;;;;16.10;100.00;100494.16;5072828;28;20051;-68
2023/09/07 05:59:55;;;;;;;4.72;3.40;;;;;;;16.17;100.00;100494.16;5074190;28;20501;-68
2023/09/07 06:02:20;;;;;;;3.70;3.28;;;;;;;16.19;100.00;100494.81;5072561;28;20033;-68
2023/09/07 06:04:46;;;;;;;5.50;3.70;;;;;;;16.26;100.00;100492.97;5072811;28;20033;-63
2023/09/07 06:07:11;;;;;;;5.03;3.47;;;;;;;16.34;100.00;100498.13;5074071;28;20426;-63
2023/09/07 06:09:37;;;;;;;6.28;3.60;;;;;;;16.45;100.00;100496.72;5072701;28;20041;-63
2023/09/07 06:12:03;;;;;;;5.88;3.17;;;;;;;16.49;100.00;100496.06;5073688;28;20116;-63
2023/09/07 06:14:29;;;;;;;5.07;3.65;;;;;;;16.59;100.00;100494.84;5072678;28;20059;-63
2023/09/07 06:16:55;;;;;;;4.93;3.58;;;;;;;16.67;100.00;100491.94;5072528;28;20498;-62
2023/09/07 06:19:20;;;;;;;5.18;3.72;;;;;;;16.74;100.00;100495.50;5072669;28;20037;-62
2023/09/07 06:21:46;;;;;;;6.60;3.83;;;;;;;16.81;100.00;100491.75;5072088;28;20045;-63
2023/09/07 06:24:11;;;;;;;3.97;3.53;;;;;;;16.89;100.00;100495.28;5072349;28;20071;-63
2023/09/07 06:26:37;;;;;;;5.72;3.15;;;;;;;16.95;100.00;100489.06;5067658;28;20033;-63
2023/09/07 06:29:03;;;;;;;6.10;3.30;;;;;;;17.05;100.00;100495.69;5052600;28;20479;-63
2023/09/07 06:31:29;;;;;;;5.10;3.50;;;;;;;17.13;100.00;100499.19;5052401;28;20024;-63
2023/09/07 06:33:55;;;;;;;4.53;3.10;;;;;;;17.20;100.00;100500.81;5052034;28;20522;-63
2023/09/07 06:36:20;;;;;;;4.10;3.38;;;;;;;17.32;99.74;100498.31;5052180;28;20492;-63
2023/09/07 06:38:45;;;;;;;4.85;3.25;;;;;;;17.41;97.92;100496.22;5052164;28;20041;-63
2023/09/07 06:41:12;;;;;;;5.55;3.45;;;;;;;17.49;97.93;100502.22;5052024;28;20037;-63
2023/09/07 06:43:38;;;;;;;5.15;3.47;;;;;;;17.58;97.81;100502.78;5051326;28;20075;-63
2023/09/07 06:46:10;;;;;;;3.85;3.38;;;;;;;17.69;97.90;100496.75;5051752;28;20472;-63
2023/09/07 06:48:36;;;;;;;5.78;3.40;;;;;;;17.75;97.51;100493.22;5051984;28;20040;-63
2023/09/07 06:51:03;;;;;;;4.85;3.63;;;;;;;17.84;96.70;100508.09;5051976;28;20025;-63
2023/09/07 06:53:30;;;;;;;3.97;3.10;;;;;;;17.92;96.94;100498.94;5051628;28;20457;-63
2023/09/07 06:56:03;;;;;;;4.53;3.65;;;;;;;18.01;96.94;100507.63;5051812;28;20407;-63
2023/09/07 06:58:32;;;;;;;4.15;2.90;;;;;;;18.10;95.78;100507.13;5052013;28;20033;-63
2023/09/07 07:00:58;;;;;;;4.80;3.38;;;;;;;18.14;95.19;100494.06;5051672;28;20128;-63
2023/09/07 07:03:28;;;;;;;5.32;3.42;;;;;;;18.24;95.15;100501.66;5051423;28;20024;-62
2023/09/07 07:05:55;;;;;;;3.97;3.28;;;;;;;18.29;94.94;100502.66;5051614;28;20044;-63
2023/09/07 07:08:20;;;;;;;4.53;2.92;;;;;;;18.34;94.60;100502.84;5051524;28;20139;-63
2023/09/07 07:10:46;;;;;;;4.75;3.22;;;;;;;18.40;94.62;100507.38;5051557;28;20129;-62
2023/09/07 07:13:11;;;;;;;4.57;3.08;;;;;;;18.49;94.19;100504.41;5052561;28;20037;-63
2023/09/07 07:15:37;;;;;;;5.18;3.25;;;;;;;18.57;94.18;100496.84;5051385;28;20064;-63
2023/09/07 07:18:08;;;;;;;5.38;3.20;;;;;;;18.67;94.04;100499.94;5052751;28;20041;-62
2023/09/07 07:20:38;;;;;;;6.00;3.90;;;;;;;18.74;93.04;100491.78;5051149;28;20128;-63
2023/09/07 07:23:06;;;;;;;4.45;3.08;;;;;;;18.85;92.97;100499.16;5052332;28;20044;-62
2023/09/07 07:25:33;;;;;;;4.30;3.13;;;;;;;18.95;92.77;100504.03;5053876;28;20038;-63
2023/09/07 07:28:00;;;;;;;5.33;3.20;;;;;;;19.04;92.72;100500.03;5061883;28;20025;-63
2023/09/07 07:30:31;;;;;;;4.60;3.38;;;;;;;19.15;92.08;100499.28;5061543;28;20279;-62
2023/09/07 07:32:57;;;;;;;5.72;3.05;;;;;;;19.26;91.68;100503.13;5059588;28;20032;-60
2023/09/07 07:35:23;;;;;;;6.35;3.20;;;;;;;19.35;90.87;100490.13;5061702;28;20028;-61
2023/09/07 07:37:49;;;;;;;4.88;3.22;;;;;;;19.40;91.26;100493.00;5060388;28;20033;-60
2023/09/07 07:40:15;;;;;;;4.65;3.65;;;;;;;19.53;89.73;100500.94;5061212;28;20515;-60
2023/09/07 07:42:40;;;;;;;4.43;3.25;;;;;;;19.70;88.63;100499.31;5061557;28;20032;-61
2023/09/07 07:45:07;;;;;;;4.30;3.13;;;;;;;19.71;88.41;100498.28;5060222;28;20029;-59
2023/09/07 07:47:32;;;;;;;3.95;2.97;;;;;;;19.81;90.65;100503.13;5062389;28;20086;-61
2023/09/07 07:49:58;;;;;;;4.88;3.33;;;;;;;19.92;87.20;100493.44;5070859;28;20036;-61
2023/09/07 07:52:23;;;;;;;7.13;3.20;;;;;;;19.97;86.79;100505.22;5070584;28;20037;-62
2023/09/07 07:54:49;;;;;;;4.55;3.10;;;;;;;20.05;85.36;100504.06;5070844;28;20044;-62
2023/09/07 07:57:15;;;;;;;5.90;3.83;;;;;;;20.17;85.74;100504.13;5070528;28;20135;-62
2023/09/07 07:59:41;;;;;;;3.92;3.10;;;;;;;20.30;84.16;100504.75;5072087;28;20040;-61
2023/09/07 08:02:07;;;;;;;4.10;2.80;;;;;;;20.33;83.87;100512.38;5070342;28;20033;-61
2023/09/07 08:04:33;;;;;;;5.57;3.30;;;;;;;20.40;84.53;100504.16;5071898;28;20040;-62
2023/09/07 08:07:03;;;;;;;4.60;3.10;;;;;;;20.50;83.49;100517.19;5070605;28;20033;-62
2023/09/07 08:09:30;;;;;;;5.28;3.45;;;;;;;20.59;82.59;100508.47;5070805;28;20475;-61
2023/09/07 08:11:56;;;;;;;7.53;3.33;;;;;;;20.70;81.97;100514.97;5070404;28;20100;-62
2023/09/07 08:14:24;;;;;;;3.35;2.92;;;;;;;20.80;81.33;100509.81;5070640;28;20483;-62
2023/09/07 08:16:49;;;;;;;5.65;3.03;;;;;;;20.89;81.12;100509.47;5070480;28;20039;-62
2023/09/07 08:19:14;;;;;;;4.10;3.67;;;;;;;20.95;79.96;100503.13;5071806;28;20033;-61
2023/09/07 08:21:42;;;;;;;5.40;3.33;;;;;;;21.08;80.34;100506.41;5071573;28;20190;-62
2023/09/07 08:24:08;;;;;;;6.10;2.97;;;;;;;21.19;81.58;100503.91;5060474;28;20430;-62
2023/09/07 08:26:36;;;;;;;5.50;3.28;;;;;;;21.32;79.32;100504.53;5052015;28;20072;-62
2023/09/07 08:29:08;;;;;;;4.22;3.10;;;;;;;21.37;76.98;100493.78;5050515;28;20025;-60
2023/09/07 08:31:34;;;;;;;5.32;3.30;;;;;;;21.60;76.32;100498.34;5051706;28;20484;-61
2023/09/07 08:34:05;;;;;;;3.67;3.03;;;;;;;21.64;76.45;100501.38;5051552;28;20044;-60
2023/09/07 08:36:33;;;;;;;4.70;3.03;;;;;;;21.72;76.56;100502.94;5051671;28;20086;-62
2023/09/07 08:39:05;;;;;;;5.55;2.88;;;;;;;21.83;75.00;100504.75;5051740;28;20448;-62
2023/09/07 08:41:43;;;;;;;4.47;3.40;;;;;;;21.91;76.37;100502.50;5051714;28;20048;-62
2023/09/07 08:44:19;;;;;;;5.05;3.30;;;;;;;22.04;73.36;100503.25;5051534;28;20036;-62
2023/09/07 08:46:45;;;;;;;8.68;3.58;;;;;;;22.08;72.77;100507.97;5051629;28;20114;-60
2023/09/07 08:49:11;;;;;;;4.75;3.50;;;;;;;22.14;72.54;100509.72;5051918;28;20435;-62
2023/09/07 08:51:38;;;;;;;8.70;3.85;;;;;;;22.20;72.08;100506.06;5051429;28;20041;-62
2023/09/07 08:54:05;;;;;;;5.00;3.17;;;;;;;22.29;71.61;100505.66;5051376;28;20060;-62
2023/09/07 08:56:31;;;;;;;5.15;3.50;;;;;;;22.37;71.29;100506.09;5051570;28;20040;-62
2023/09/07 08:58:57;;;;;;;3.65;3.13;;;;;;;22.40;70.81;100499.34;5051550;28;20047;-62
2023/09/07 09:01:23;;;;;;;5.68;3.42;;;;;;;22.53;72.34;100509.88;5051373;28;20029;-61
2023/09/07 09:03:52;;;;;;;4.03;3.42;;;;;;;22.65;70.01;100515.25;5051120;28;20033;-62
2023/09/07 09:06:19;;;;;;;3.85;3.25;;;;;;;22.73;70.07;100504.78;5051358;28;20068;-62
2023/09/07 09:08:49;;;;;;;3.58;3.28;;;;;;;22.86;69.93;100511.81;5054115;28;20123;-61
2023/09/07 09:11:15;;;;;;;4.05;3.00;;;;;;;23.00;68.55;100507.66;5055131;28;20044;-62
2023/09/07 09:13:41;;;;;;;4.55;3.13;;;;;;;23.07;67.96;100507.50;5054905;28;20033;-63
2023/09/07 09:16:07;;;;;;;4.95;3.38;;;;;;;23.18;67.54;100511.19;5055021;28;20120;-63
2023/09/07 09:18:32;;;;;;;3.67;3.22;;;;;;;23.25;68.08;100504.50;5055134;28;20032;-63
2023/09/07 09:21:00;;;;;;;3.92;3.28;;;;;;;23.41;66.86;100504.69;5054844;28;20045;-62
2023/09/07 09:23:36;;;;;;;3.72;3.38;;;;;;;23.57;66.58;100501.13;5054730;28;20582;-61
2023/09/07 09:26:04;;;;;;;3.50;3.20;;;;;;;23.70;65.83;100497.22;5054803;28;20103;-62
2023/09/07 09:28:34;;;;;;;6.15;4.15;;;;;;;23.84;64.85;100490.31;5055186;28;20453;-62
2023/09/07 09:31:01;;;;;;;3.92;3.30;;;;;;;23.97;63.35;100492.63;5054891;28;20044;-64
2023/09/07 09:33:27;;;;;;;4.13;3.42;;;;;;;24.13;63.27;100487.38;5054558;28;20515;-61
2023/09/07 09:35:54;;;;;;;9.73;3.20;;;;;;;24.24;63.17;100492.63;5054546;28;20044;-62
2023/09/07 09:38:19;;;;;;;3.70;3.00;;;;;;;24.39;61.54;100489.28;5054621;28;20039;-63
2023/09/07 09:40:45;;;;;;;3.90;3.47;;;;;;;24.49;60.72;100494.81;5054541;28;20463;-62
2023/09/07 09:43:12;;;;;;;4.90;3.10;;;;;;;24.63;60.73;100492.47;5054521;28;20043;-59
2023/09/07 09:45:37;;;;;;;5.63;3.05;;;;;;;24.78;59.42;100494.50;5054645;28;20071;-63
2023/09/07 09:48:05;;;;;;;5.03;3.40;;;;;;;24.85;58.39;100492.38;5054500;28;20072;-59
2023/09/07 09:50:31;;;;;;;4.20;3.20;;;;;;;25.05;58.21;100492.53;5054558;28;20040;-62
2023/09/07 09:52:58;;;;;;;3.70;3.30;;;;;;;25.26;57.23;100496.22;5054295;28;20082;-59
2023/09/07 09:55:24;;;;;;;4.22;3.10;;;;;;;25.42;56.76;100494.38;5054475;28;20551;-63
2023/09/07 09:57:50;;;;;;;4.57;2.97;;;;;;;25.66;55.51;100490.09;5053085;28;20120;-60
2023/09/07 10:02:44;;;;;;;3.70;3.10;;;;;;;26.13;54.42;100480.16;5054054;28;20542;-63
2023/09/07 10:05:11;;;;;;;3.42;3.13;;;;;;;26.39;52.79;100470.09;5052939;28;20056;-61
2023/09/07 10:07:44;;;;;;;4.23;3.00;;;;;;;26.95;51.36;100481.03;5054103;28;20033;-63
2023/09/07 10:10:12;;;;;;;4.47;3.25;;;;;;;27.31;49.88;100474.38;5054128;28;20752;-62
2023/09/07 10:12:42;;;;;;;3.42;3.13;;;;;;;27.62;49.57;100476.19;5053741;28;20021;-63
2023/09/07 10:15:20;;;;;;;4.15;3.00;;;;;;;28.16;47.99;100475.34;5053945;28;20480;-62
2023/09/07 10:17:46;;;;;;;4.15;3.20;;;;;;;28.48;46.27;100474.84;5053915;28;20041;-62
2023/09/07 10:20:12;;;;;;;3.53;3.07;;;;;;;28.83;46.04;100473.72;5053634;28;20060;-64
2023/09/07 10:22:37;;;;;;;3.35;2.95;;;;;;;29.34;44.38;100468.53;5053804;28;20025;-63
2023/09/07 10:25:03;;;;;;;4.45;2.65;;;;;;;29.59;43.52;100474.84;5053765;28;20102;-64
2023/09/07 10:27:37;;;;;;;3.70;3.30;;;;;;;29.95;43.72;100481.47;5053812;28;20041;-62
2023/09/07 10:30:09;;;;;;;3.33;3.03;;;;;;;29.93;43.24;100472.72;5053835;28;20044;-64
2023/09/07 10:32:40;;;;;;;4.10;3.17;;;;;;;30.17;42.59;100466.34;5053181;28;20080;-64
2023/09/07 10:35:14;;;;;;;4.18;3.17;;;;;;;30.46;41.88;100466.97;5053770;28;20466;-62
2023/09/07 10:37:40;;;;;;;3.97;3.03;;;;;;;30.77;41.38;100463.72;5053583;28;20045;-63
2023/09/07 10:40:11;;;;;;;3.50;3.20;;;;;;;30.80;42.04;100465.88;5053635;28;20715;-62
2023/09/07 10:42:37;;;;;;;3.53;3.00;;;;;;;31.11;41.54;100465.31;5053219;28;20098;-62
2023/09/07 10:45:15;;;;;;;4.63;2.83;;;;;;;31.45;39.89;100460.22;5053368;28;20056;-63
2023/09/07 10:47:43;;;;;;;4.13;3.05;;;;;;;31.45;39.13;100451.97;5053297;28;20044;-63
2023/09/07 10:50:12;;;;;;;5.97;3.13;;;;;;;32.00;38.51;100462.06;5052064;28;20488;-63
2023/09/07 10:52:39;;;;;;;3.28;2.97;;;;;;;32.32;38.31;100456.31;5052887;28;20041;-63
2023/09/07 10:55:05;;;;;;;3.45;2.95;;;;;;;32.67;38.35;100457.41;5053317;28;20040;-63
2023/09/07 10:57:31;;;;;;;3.75;3.05;;;;;;;32.49;38.13;100447.38;5053165;28;20115;-63
2023/09/07 10:59:57;;;;;;;2.90;2.60;;;;;;;32.90;37.73;100447.16;5053178;28;20585;-62
2023/09/07 11:02:22;;;;;;;3.42;3.13;;;;;;;33.05;36.59;100445.91;5052789;28;20036;-63
2023/09/07 11:04:48;;;;;;;5.87;2.83;;;;;;;33.13;36.46;100434.09;5053238;28;20550;-63
2023/09/07 11:07:13;;;;;;;3.93;3.47;;;;;;;32.83;37.02;100437.69;5053012;28;20048;-62
2023/09/07 11:09:43;;;;;;;4.10;3.20;;;;;;;33.47;36.42;100436.16;5052912;28;20120;-63
2023/09/07 11:12:12;;;;;;;3.47;2.80;;;;;;;33.70;35.89;100436.03;5052457;28;20059;-61
2023/09/07 11:14:39;;;;;;;6.50;3.00;;;;;;;33.28;36.28;100423.75;5052936;28;20029;-63
2023/09/07 11:17:04;;;;;;;3.03;2.78;;;;;;;33.73;35.95;100430.66;5052688;28;20036;-63
2023/09/07 11:19:33;;;;;;;4.23;2.80;;;;;;;34.25;34.45;100425.16;5052928;28;20060;-63
2023/09/07 11:21:59;;;;;;;3.97;2.90;;;;;;;34.63;34.24;100421.69;5052460;28;20048;-63
2023/09/07 11:24:25;;;;;;;2.57;2.37;;;;;;;34.53;34.46;100414.53;5052684;28;20044;-63
2023/09/07 11:26:51;;;;;;;;;;;;;;;34.51;34.33;100416.84;5053206;28;20452;-63
2023/09/07 11:29:18;;;;;;;3.78;2.80;;;;;;;34.70;34.19;100415.66;5054827;28;19922;-63
2023/09/07 11:31:46;;;;;;;;;;;;;;;34.75;34.48;100421.78;5063316;28;20049;-63
2023/09/07 11:34:13;;;;;;;3.40;3.10;;;;;;;34.74;34.06;100411.88;5061628;28;19966;-63
2023/09/07 11:36:43;;;;;;;3.88;2.83;;;;;;;34.66;34.44;100409.94;5061924;28;20032;-63
2023/09/07 11:39:12;;;;;;;4.00;2.90;;;;;;;35.14;33.67;100417.06;5065408;28;20067;-62
2023/09/07 11:41:40;;;;;;;3.95;2.80;;;;;;;34.79;33.91;100416.41;5064879;28;20029;-61
2023/09/07 11:44:06;;;;;;;3.28;2.97;;;;;;;35.16;33.61;100411.22;5062651;28;20040;-62
2023/09/07 11:46:32;;;;;;;5.05;2.92;;;;;;;35.34;33.01;100405.25;5040569;28;20036;-62
2023/09/07 11:48:58;;;;;;;3.80;3.20;;;;;;;35.10;32.98;100415.34;5044452;28;20028;-62
2023/09/07 11:51:24;;;;;;;3.90;2.78;;;;;;;35.17;33.22;100413.66;5062613;28;20401;-62
2023/09/07 11:53:49;;;;;;;4.33;3.00;;;;;;;35.59;32.83;100416.50;5042665;28;20044;-60
2023/09/07 11:56:15;;;;;;;4.33;2.63;;;;;;;36.02;32.24;100418.94;5044962;28;20399;-62
2023/09/07 11:58:42;;;;;;;3.67;2.88;;;;;;;36.33;31.65;100415.72;5061133;28;20036;-62
2023/09/07 12:01:08;;;;;;;3.35;3.03;;;;;;;36.05;31.87;100412.72;5043133;28;20041;-62
2023/09/07 12:03:34;;;;;;;;;;;;;;;35.19;33.05;100405.81;5062691;28;20032;-62
2023/09/07 12:06:00;;;;;;;4.07;2.70;;;;;;;35.08;33.43;100404.56;5042089;28;19913;-62
2023/09/07 12:08:25;;;;;;;3.28;2.80;;;;;;;35.22;32.76;100407.13;5043434;28;20040;-62
2023/09/07 12:10:51;;;;;;;3.67;3.20;;;;;;;35.40;32.53;100400.31;5063014;28;20124;-62
2023/09/07 12:13:16;;;;;;;3.90;2.97;;;;;;;35.24;33.43;100410.38;5059625;28;20487;-62
2023/09/07 12:15:45;;;;;;;2.77;2.43;;;;;;;35.63;32.61;100400.03;5060029;28;20071;-61
2023/09/07 12:18:10;;;;;;;3.40;2.70;;;;;;;35.72;32.43;100396.03;5061336;28;20040;-62
2023/09/07 12:20:36;;;;;;;3.20;2.90;;;;;;;36.21;32.82;100406.56;5059700;28;20055;-61
2023/09/07 12:23:02;;;;;;;3.47;3.03;;;;;;;35.78;31.98;100400.22;5061337;28;20530;-62
2023/09/07 12:25:27;;;;;;;3.35;2.85;;;;;;;35.80;32.34;100395.16;5057676;28;20037;-62
2023/09/07 12:27:53;;;;;;;3.50;3.20;;;;;;;35.27;33.46;100391.09;5060599;28;20491;-62
2023/09/07 12:30:20;;;;;;;3.50;3.20;;;;;;;34.63;33.66;100380.19;5062513;28;20048;-62
2023/09/07 12:32:46;;;;;;;4.60;2.90;;;;;;;35.58;32.81;100388.00;5061982;28;20032;-62
2023/09/07 12:35:11;;;;;;;5.43;2.97;;;;;;;35.64;32.97;100380.28;5059506;28;20112;-61
2023/09/07 12:37:37;;;;;;;4.63;3.20;;;;;;;36.03;31.52;100392.84;5050430;28;20044;-63
2023/09/07 12:40:12;;;;;;;5.20;3.17;;;;;;;35.78;31.92;100380.00;5051695;28;20036;-63
2023/09/07 12:42:47;;;;;;;3.63;2.90;;;;;;;35.64;32.84;100383.06;5052606;28;20032;-63
2023/09/07 12:45:14;;;;;;;5.63;2.92;;;;;;;36.23;31.45;100377.31;5055805;28;20083;-63
2023/09/07 12:47:39;;;;;;;4.05;3.30;;;;;;;36.52;30.68;100375.59;5055485;28;20025;-63
2023/09/07 12:50:06;;;;;;;4.40;3.17;;;;;;;36.00;32.23;100376.91;5055557;28;20048;-63
2023/09/07 12:52:35;;;;;;;3.80;3.08;;;;;;;36.49;31.37;100377.06;5055137;28;20044;-61
2023/09/07 12:55:01;;;;;;;3.55;2.90;;;;;;;36.77;30.94;100381.94;5055634;28;20059;-62
2023/09/07 12:57:26;;;;;;;3.45;2.95;;;;;;;36.28;31.33;100370.75;5055459;28;20032;-61
2023/09/07 12:59:52;;;;;;;3.80;3.00;;;;;;;36.47;31.47;100373.03;5055409;28;20498;-63
2023/09/07 13:02:17;;;;;;;3.33;3.03;;;;;;;36.97;30.65;100375.50;5054981;28;20044;-63
2023/09/07 13:04:42;;;;;;;4.97;2.57;;;;;;;37.23;29.32;100377.88;5055334;28;20047;-63
2023/09/07 13:07:08;;;;;;;3.53;3.23;;;;;;;37.42;29.50;100369.78;5055138;28;20119;-63
2023/09/07 13:09:34;;;;;;;3.83;2.67;;;;;;;37.07;29.71;100368.66;5055194;28;20044;-63
2023/09/07 13:11:59;;;;;;;4.10;2.70;;;;;;;37.60;29.78;100375.88;5054749;28;20048;-63
2023/09/07 13:14:25;;;;;;;3.40;2.60;;;;;;;36.97;29.75;100374.69;5055004;28;20288;-63
2023/09/07 13:16:51;;;;;;;4.15;2.90;;;;;;;37.68;29.13;100371.31;5055213;28;20567;-62
2023/09/07 13:19:16;;;;;;;3.27;2.90;;;;;;;37.60;28.84;100363.97;5055067;28;20076;-62
2023/09/07 13:21:42;;;;;;;3.03;2.72;;;;;;;37.50;29.47;100364.47;5054853;28;20041;-62
2023/09/07 13:24:07;;;;;;;3.23;2.40;;;;;;;37.55;29.21;100366.97;5054868;28;20083;-61
2023/09/07 13:26:32;;;;;;;3.60;2.67;;;;;;;36.91;29.85;100357.47;5054818;28;20099;-62
2023/09/07 13:28:58;;;;;;;3.40;2.60;;;;;;;37.25;29.80;100358.94;5054868;28;20029;-62
2023/09/07 13:31:23;;;;;;;3.57;3.00;;;;;;;37.42;28.96;100361.44;5054667;28;20037;-63
2023/09/07 13:33:49;;;;;;;3.77;2.80;;;;;;;37.85;28.54;100359.16;5054536;28;20041;-63
2023/09/07 13:36:14;;;;;;;5.47;2.88;;;;;;;37.88;28.87;100361.19;5054742;28;20156;-62
2023/09/07 13:38:41;;;;;;;3.83;2.80;;;;;;;37.47;28.88;100352.06;5054887;28;20040;-61
2023/09/07 13:41:06;;;;;;;4.68;2.63;;;;;;;37.81;28.53;100350.69;5054625;28;20106;-62
2023/09/07 13:43:32;;;;;;;3.30;2.80;;;;;;;37.47;29.00;100355.66;5054345;28;20519;-62
2023/09/07 13:45:57;;;;;;;3.07;2.57;;;;;;;36.86;29.38;100339.09;5054538;28;20777;-63
2023/09/07 13:48:23;;;;;;;2.50;2.30;;;;;;;37.59;28.59;100337.34;5054464;28;20123;-62
2023/09/07 13:50:48;;;;;;;3.10;2.73;;;;;;;37.59;27.89;100340.13;5054441;28;20132;-62
2023/09/07 13:53:14;;;;;;;4.32;2.78;;;;;;;37.08;28.70;100339.75;5053775;28;20033;-62
2023/09/07 13:55:41;;;;;;;2.90;2.60;;;;;;;35.43;30.75;100341.53;5054411;28;20402;-62
2023/09/07 13:58:07;;;;;;;3.20;2.90;;;;;;;35.66;31.29;100338.41;5054226;28;20077;-62
2023/09/07 14:00:33;;;;;;;3.27;2.80;;;;;;;35.60;30.93;100335.88;5054285;28;20118;-62
2023/09/07 14:02:58;;;;;;;4.03;2.43;;;;;;;35.11;31.70;100336.69;5053970;28;20275;-62
2023/09/07 14:05:23;;;;;;;2.80;2.33;;;;;;;34.83;32.07;100339.13;5047568;28;20476;-61
2023/09/07 14:07:49;;;;;;;4.87;2.87;;;;;;;34.06;32.78;100330.75;5054126;28;20087;-62
2023/09/07 14:10:14;;;;;;;3.03;2.63;;;;;;;33.67;34.21;100332.56;5054162;28;20389;-62
2023/09/07 14:12:40;;;;;;;2.80;2.60;;;;;;;33.60;33.68;100325.91;5053696;28;20037;-62
2023/09/07 14:15:05;;;;;;;4.33;2.63;;;;;;;33.28;34.73;100327.16;5053941;28;20037;-62
2023/09/07 14:17:31;;;;;;;3.27;2.90;;;;;;;33.08;34.60;100334.09;5062013;28;20369;-62
2023/09/07 14:19:56;;;;;;;3.03;2.70;;;;;;;32.91;35.28;100332.09;5064025;28;20275;-62
2023/09/07 14:22:22;;;;;;;3.60;2.80;;;;;;;32.32;36.36;100337.81;5063640;28;20043;-62
2023/09/07 14:24:47;;;;;;;3.10;2.57;;;;;;;32.32;36.55;100329.56;5064329;28;20048;-63
2023/09/07 14:27:13;;;;;;;3.37;3.07;;;;;;;32.05;37.18;100315.97;5062211;28;20120;-63
2023/09/07 14:29:38;;;;;;;4.10;2.80;;;;;;;31.83;37.15;100320.38;5063786;28;20111;-63
2023/09/07 14:32:05;;;;;;;3.90;2.90;;;;;;;31.66;37.57;100319.38;5063207;28;20036;-63
2023/09/07 14:34:30;;;;;;;3.00;2.72;;;;;;;31.19;38.13;100314.09;5062002;28;20060;-63
2023/09/07 14:36:55;;;;;;;3.77;2.87;;;;;;;31.18;38.91;100317.16;5063891;28;20086;-62
2023/09/07 14:39:23;;;;;;;3.93;2.93;;;;;;;31.11;38.94;100316.78;5063129;28;20037;-63
2023/09/07 14:41:50;;;;;;;3.38;2.75;;;;;;;31.11;39.51;100314.03;5066395;28;20025;-63
2023/09/07 14:44:16;;;;;;;;;;;;;;;30.82;39.25;100311.59;5056426;28;20039;-63
2023/09/07 14:46:41;;;;;;;5.13;2.87;;;;;;;31.01;39.29;100315.03;5053271;28;19999;-63
2023/09/07 14:49:06;;;;;;;3.40;2.87;;;;;;;30.89;39.96;100317.50;5053327;28;20037;-62
2023/09/07 14:51:32;;;;;;;3.83;2.80;;;;;;;31.05;39.83;100311.38;5053174;28;20037;-63
2023/09/07 14:53:57;;;;;;;2.93;2.67;;;;;;;30.76;39.88;100308.13;5052958;28;20039;-63
2023/09/07 14:56:24;;;;;;;2.50;2.22;;;;;;;30.83;40.74;100303.03;5052889;28;20041;-62
2023/09/07 14:58:49;;;;;;;4.80;2.90;;;;;;;30.87;40.11;100301.31;5053134;28;20025;-62
2023/09/07 15:01:15;;;;;;;3.78;2.75;;;;;;;30.85;39.76;100302.75;5053071;28;20471;-62
2023/09/07 15:03:40;;;;;;;3.15;2.80;;;;;;;30.81;39.86;100299.78;5065500;28;20050;-63
2023/09/07 15:06:07;;;;;;;5.22;2.75;;;;;;;30.75;39.85;100298.25;5070875;28;20086;-63
2023/09/07 15:08:33;;;;;;;3.45;2.70;;;;;;;30.68;39.80;100301.44;5072973;28;20044;-63
2023/09/07 15:10:58;;;;;;;2.90;2.63;;;;;;;30.74;40.10;100299.38;5072866;28;20047;-63
2023/09/07 15:13:23;;;;;;;3.37;2.63;;;;;;;30.70;39.34;100290.94;5072527;28;20395;-63
2023/09/07 15:15:49;;;;;;;5.07;3.05;;;;;;;30.65;39.82;100296.53;5072730;28;20136;-63
2023/09/07 15:18:14;;;;;;;7.30;3.05;;;;;;;30.63;39.79;100286.94;5072994;28;20094;-63
2023/09/07 15:20:40;;;;;;;4.10;2.83;;;;;;;30.58;39.44;100295.28;5072572;28;20123;-63
2023/09/07 15:23:05;;;;;;;4.07;2.75;;;;;;;30.47;39.57;100295.50;5072361;28;20040;-63
2023/09/07 15:25:30;;;;;;;3.08;2.78;;;;;;;30.48;40.01;100290.81;5072560;28;20037;-63
2023/09/07 15:27:56;;;;;;;3.38;3.08;;;;;;;30.47;40.87;100287.25;5072661;28;20052;-62
2023/09/07 15:30:23;;;;;;;3.33;2.78;;;;;;;30.48;40.14;100290.81;5072546;28;20048;-63
2023/09/07 15:32:49;;;;;;;3.67;2.80;;;;;;;30.43;39.80;100290.91;5072125;28;20036;-62
2023/09/07 15:35:16;;;;;;;3.35;2.65;;;;;;;30.22;40.55;100293.22;5072377;28;20499;-62
2023/09/07 15:37:45;;;;;;;2.80;2.50;;;;;;;30.33;40.44;100289.19;5069403;28;20044;-63
2023/09/07 15:40:12;;;;;;;2.97;2.67;;;;;;;30.30;40.21;100281.53;5051215;28;20041;-63
2023/09/07 15:42:37;;;;;;;5.93;2.85;;;;;;;30.27;40.24;100288.47;5051941;28;20024;-61
2023/09/07 15:45:03;;;;;;;4.68;2.63;;;;;;;30.26;39.60;100288.75;5052425;28;20377;-63